createdAt,value
2023-03-11T00:00:27.484Z,34.22
2023-03-11T00:02:53.842Z,34.22
2023-03-11T00:05:21.580Z,34.25
2023-03-11T00:07:48.248Z,34.26
2023-03-11T00:10:12.908Z,34.24
2023-03-11T00:12:39.304Z,34.27
2023-03-11T00:15:05.655Z,34.28
2023-03-11T00:17:32.032Z,34.31
2023-03-11T00:19:58.378Z,34.33
2023-03-11T00:22:24.767Z,34.34
2023-03-11T00:24:51.113Z,34.36
2023-03-11T00:27:17.536Z,34.39
2023-03-11T00:29:43.881Z,34.41
2023-03-11T00:32:10.259Z,34.40
2023-03-11T00:34:36.613Z,34.43
2023-03-11T00:37:02.981Z,34.42
2023-03-11T00:39:29.329Z,34.49
2023-03-11T00:41:55.725Z,34.49
2023-03-11T00:44:22.056Z,34.52
2023-03-11T00:46:48.452Z,34.52
2023-03-11T00:49:14.806Z,34.52
2023-03-11T00:51:41.178Z,34.53
2023-03-11T00:54:07.518Z,34.55
2023-03-11T00:56:33.915Z,34.55
2023-03-11T00:59:00.255Z,34.62
2023-03-11T01:01:26.694Z,34.59
2023-03-11T01:03:53.079Z,34.62
2023-03-11T01:06:19.378Z,34.62
2023-03-11T01:08:45.708Z,34.66
2023-03-11T01:11:12.101Z,34.66
2023-03-11T01:13:38.447Z,34.70
2023-03-11T01:16:04.866Z,34.68
2023-03-11T01:18:31.170Z,34.73
2023-03-11T01:20:57.599Z,34.71
2023-03-11T01:23:23.892Z,34.73
2023-03-11T01:25:51.268Z,34.74
2023-03-11T01:28:17.820Z,34.73
2023-03-11T01:30:43.077Z,34.73
2023-03-11T01:33:09.367Z,34.76
2023-03-11T01:35:35.760Z,34.78
2023-03-11T01:38:02.089Z,34.77
2023-03-11T01:40:28.475Z,34.83
2023-03-11T01:42:54.856Z,34.83
2023-03-11T01:45:21.207Z,34.86
2023-03-11T01:47:48.493Z,34.84
2023-03-11T01:50:13.934Z,34.90
2023-03-11T01:52:40.267Z,34.88
2023-03-11T01:55:06.667Z,34.90
2023-03-11T01:57:33.002Z,34.90
2023-03-11T01:59:59.395Z,34.90
2023-03-11T02:02:25.733Z,34.88
2023-03-11T02:04:52.122Z,34.86
2023-03-11T02:07:18.478Z,34.88
2023-03-11T02:09:44.886Z,34.90
2023-03-11T02:12:12.200Z,34.93
2023-03-11T02:14:37.618Z,34.95
2023-03-11T02:17:03.964Z,34.98
2023-03-11T02:19:30.348Z,35.00
2023-03-11T02:21:56.694Z,35.00
2023-03-11T02:24:23.103Z,34.99
2023-03-11T02:26:49.426Z,35.02
2023-03-11T02:29:15.811Z,35.05
2023-03-11T02:31:43.257Z,35.03
2023-03-11T02:34:08.545Z,35.05
2023-03-11T02:36:34.891Z,35.09
2023-03-11T02:39:01.273Z,35.09
2023-03-11T02:41:27.618Z,35.10
2023-03-11T02:43:53.998Z,35.13
2023-03-11T02:46:20.383Z,35.13
2023-03-11T02:48:46.733Z,35.11
2023-03-11T02:51:13.087Z,35.16
2023-03-11T02:53:39.429Z,35.16
2023-03-11T02:56:05.850Z,35.16
2023-03-11T02:58:32.195Z,35.20
2023-03-11T03:00:58.636Z,35.21
2023-03-11T03:03:24.935Z,35.23
2023-03-11T03:05:52.269Z,35.24
2023-03-11T03:08:17.662Z,35.23
2023-03-11T03:10:44.048Z,35.24
2023-03-11T03:13:10.384Z,35.26
2023-03-11T03:15:36.775Z,35.26
2023-03-11T03:18:03.123Z,35.30
2023-03-11T03:20:29.520Z,35.32
2023-03-11T03:22:55.855Z,35.34
2023-03-11T03:25:22.240Z,35.30
2023-03-11T03:27:48.601Z,35.35
2023-03-11T03:30:14.973Z,35.34
2023-03-11T03:32:41.344Z,35.36
2023-03-11T03:35:07.715Z,35.37
2023-03-11T03:37:34.049Z,35.36
2023-03-11T03:40:00.436Z,35.38
2023-03-11T03:42:26.770Z,35.42
2023-03-11T03:44:53.166Z,35.42
2023-03-11T03:47:19.523Z,35.40
2023-03-11T03:49:45.934Z,35.42
2023-03-11T03:52:12.283Z,35.45
2023-03-11T03:54:38.664Z,35.47
2023-03-11T03:57:04.999Z,35.48
2023-03-11T03:59:31.388Z,35.47
2023-03-11T04:01:57.767Z,35.47
2023-03-11T04:04:24.114Z,35.52
2023-03-11T04:06:50.505Z,35.51
2023-03-11T04:09:16.881Z,35.52
2023-03-11T04:11:43.259Z,35.52
2023-03-11T04:14:09.656Z,35.55
2023-03-11T04:16:36.088Z,35.54
2023-03-11T04:19:02.426Z,35.54
2023-03-11T04:21:28.781Z,35.55
2023-03-11T04:23:55.160Z,35.57
2023-03-11T04:26:21.508Z,35.61
2023-03-11T04:28:47.924Z,35.59
2023-03-11T04:31:14.294Z,35.60
2023-03-11T04:33:40.636Z,35.61
2023-03-11T04:36:06.997Z,35.63
2023-03-11T04:38:33.358Z,35.65
2023-03-11T04:40:59.708Z,35.65
2023-03-11T04:43:26.100Z,35.63
2023-03-11T04:45:52.474Z,35.65
2023-03-11T04:48:18.838Z,35.68
2023-03-11T04:50:45.178Z,35.65
2023-03-11T04:53:11.564Z,35.66
2023-03-11T04:55:37.909Z,35.67
2023-03-11T04:58:04.283Z,35.68
2023-03-11T05:00:30.625Z,35.68
2023-03-11T05:02:57.063Z,35.67
2023-03-11T05:05:23.374Z,35.65
2023-03-11T05:07:49.778Z,35.67
2023-03-11T05:10:16.110Z,35.67
2023-03-11T05:12:42.517Z,35.66
2023-03-11T05:15:08.870Z,35.71
2023-03-11T05:17:35.249Z,35.68
2023-03-11T05:20:01.594Z,35.69
2023-03-11T05:22:27.996Z,35.70
2023-03-11T05:24:54.341Z,35.69
2023-03-11T05:27:20.722Z,35.71
2023-03-11T05:29:48.328Z,35.70
2023-03-11T05:32:13.521Z,35.73
2023-03-11T05:34:39.829Z,35.74
2023-03-11T05:37:06.197Z,35.74
2023-03-11T05:39:32.552Z,35.76
2023-03-11T05:41:58.932Z,35.77
2023-03-11T05:44:25.282Z,35.75
2023-03-11T05:46:51.738Z,35.77
2023-03-11T05:49:18.033Z,35.74
2023-03-11T05:51:44.389Z,35.77
2023-03-11T05:54:10.734Z,35.77
2023-03-11T05:56:37.117Z,35.78
2023-03-11T05:59:03.455Z,35.78
2023-03-11T06:01:29.843Z,35.77
2023-03-11T06:03:56.275Z,35.77
2023-03-11T06:06:22.562Z,35.75
2023-03-11T06:08:48.897Z,35.58
2023-03-11T06:11:15.268Z,35.54
2023-03-11T06:13:41.615Z,35.45
2023-03-11T06:16:08.077Z,35.40
2023-03-11T06:18:34.378Z,35.32
2023-03-11T06:21:02.084Z,35.22
2023-03-11T06:23:27.169Z,35.12
2023-03-11T06:25:53.558Z,35.03
2023-03-11T06:28:19.904Z,34.90
2023-03-11T06:30:46.293Z,34.86
2023-03-11T06:33:12.633Z,34.76
2023-03-11T06:35:39.064Z,34.68
2023-03-11T06:38:05.362Z,34.62
2023-03-11T06:40:31.749Z,34.58
2023-03-11T06:42:58.098Z,34.46
2023-03-11T06:45:24.521Z,34.39
2023-03-11T06:47:50.860Z,34.29
2023-03-11T06:50:18.194Z,34.24
2023-03-11T06:52:43.599Z,34.20
2023-03-11T06:55:10.031Z,34.11
2023-03-11T06:57:36.353Z,33.99
2023-03-11T07:00:02.743Z,33.91
2023-03-11T07:02:29.086Z,33.83
2023-03-11T07:04:55.517Z,33.73
2023-03-11T07:07:21.815Z,33.65
2023-03-11T07:09:48.202Z,33.55
2023-03-11T07:12:14.549Z,33.39
2023-03-11T07:14:40.931Z,33.32
2023-03-11T07:17:08.485Z,33.19
2023-03-11T07:19:34.009Z,33.10
2023-03-11T07:22:00.360Z,32.99
2023-03-11T07:24:26.732Z,32.84
2023-03-11T07:26:53.083Z,32.76
2023-03-11T07:29:19.865Z,32.66
2023-03-11T07:31:45.890Z,32.51
2023-03-11T07:34:12.209Z,32.39
2023-03-11T07:36:38.587Z,32.36
2023-03-11T07:39:04.996Z,32.28
2023-03-11T07:41:31.319Z,32.17
2023-03-11T07:43:57.697Z,32.12
2023-03-11T07:46:24.079Z,32.10
2023-03-11T07:48:50.422Z,31.94
2023-03-11T07:51:16.767Z,31.82
2023-03-11T07:53:43.156Z,31.75
2023-03-11T07:56:09.512Z,31.72
2023-03-11T07:58:35.886Z,31.61
2023-03-11T08:01:03.539Z,31.62
2023-03-11T08:03:28.663Z,31.51
2023-03-11T08:05:54.964Z,31.40
2023-03-11T08:08:21.344Z,31.27
2023-03-11T08:10:47.695Z,31.30
2023-03-11T08:13:14.075Z,31.20
2023-03-11T08:15:40.432Z,31.15
2023-03-11T08:18:06.802Z,31.04
2023-03-11T08:20:33.150Z,30.91
2023-03-11T08:22:59.540Z,30.84
2023-03-11T08:25:25.865Z,30.71
2023-03-11T08:27:52.267Z,30.63
2023-03-11T08:30:18.614Z,30.49
2023-03-11T08:32:45.027Z,30.50
2023-03-11T08:35:11.336Z,30.43
2023-03-11T08:37:37.752Z,30.34
2023-03-11T08:40:04.109Z,30.27
2023-03-11T08:42:30.486Z,30.04
2023-03-11T08:44:56.822Z,29.95
2023-03-11T08:47:23.209Z,29.83
2023-03-11T08:49:50.500Z,29.80
2023-03-11T08:52:15.988Z,29.82
2023-03-11T08:54:42.332Z,29.66
2023-03-11T08:57:08.713Z,29.70
2023-03-11T08:59:35.050Z,29.62
2023-03-11T09:02:01.444Z,29.53
2023-03-11T09:04:27.787Z,29.47
2023-03-11T09:06:54.196Z,29.47
2023-03-11T09:09:20.618Z,29.48
2023-03-11T09:11:47.001Z,29.36
2023-03-11T09:14:13.337Z,29.27
2023-03-11T09:16:39.731Z,29.24
2023-03-11T09:19:06.062Z,29.21
2023-03-11T09:21:32.453Z,29.13
2023-03-11T09:23:58.799Z,29.19
2023-03-11T09:26:25.186Z,29.20
2023-03-11T09:28:51.533Z,29.05
2023-03-11T09:31:17.943Z,28.97
2023-03-11T09:33:44.293Z,29.04
2023-03-11T09:36:10.684Z,29.11
2023-03-11T09:38:37.021Z,28.98
2023-03-11T09:41:03.410Z,28.88
2023-03-11T09:43:29.760Z,28.88
2023-03-11T09:45:56.147Z,29.02
2023-03-11T09:48:22.897Z,29.01
2023-03-11T09:50:48.877Z,28.97
2023-03-11T09:53:15.218Z,28.87
2023-03-11T09:55:43.289Z,28.92
2023-03-11T09:58:08.051Z,28.86
2023-03-11T10:00:34.482Z,28.90
2023-03-11T10:03:00.840Z,28.85
2023-03-11T10:05:27.232Z,28.98
2023-03-11T10:07:53.598Z,28.83
2023-03-11T10:10:19.975Z,28.73
2023-03-11T10:12:46.320Z,28.79
2023-03-11T10:15:12.722Z,28.57
2023-03-11T10:17:39.060Z,28.47
2023-03-11T10:20:05.453Z,28.29
2023-03-11T10:22:31.795Z,28.23
2023-03-11T10:24:58.181Z,28.05
2023-03-11T10:27:24.560Z,28.02
2023-03-11T10:29:50.947Z,28.05
2023-03-11T10:32:17.483Z,28.04
2023-03-11T10:34:43.805Z,28.09
2023-03-11T10:37:10.139Z,28.00
2023-03-11T10:39:36.515Z,28.02
2023-03-11T10:42:02.902Z,27.98
2023-03-11T10:44:29.253Z,27.85
2023-03-11T10:46:55.602Z,27.76
2023-03-11T10:49:23.220Z,27.72
2023-03-11T10:51:48.325Z,27.51
2023-03-11T10:54:15.917Z,27.48
2023-03-11T10:56:41.068Z,27.61
2023-03-11T10:59:07.444Z,27.60
2023-03-11T11:01:33.850Z,27.59
2023-03-11T11:04:00.178Z,27.48
2023-03-11T11:06:26.518Z,27.48
2023-03-11T11:08:52.897Z,27.44
2023-03-11T11:11:19.248Z,27.44
2023-03-11T11:13:45.639Z,27.50
2023-03-11T11:16:12.015Z,27.44
2023-03-11T11:18:38.381Z,27.44
2023-03-11T11:21:04.727Z,27.52
2023-03-11T11:23:31.118Z,27.51
2023-03-11T11:25:57.454Z,27.51
2023-03-11T11:28:25.997Z,27.51
2023-03-11T11:30:52.395Z,27.56
2023-03-11T11:33:18.717Z,27.52
2023-03-11T11:35:45.058Z,27.46
2023-03-11T11:38:11.492Z,27.46
2023-03-11T11:40:37.790Z,27.49
2023-03-11T11:43:04.194Z,27.55
2023-03-11T11:45:30.547Z,27.66
2023-03-11T11:47:56.930Z,27.76
2023-03-11T11:50:23.272Z,27.77
2023-03-11T11:52:49.667Z,27.86
2023-03-11T11:55:16.004Z,27.76
2023-03-11T11:57:42.392Z,27.70
2023-03-11T12:00:08.740Z,27.73
2023-03-11T12:02:35.126Z,27.71
2023-03-11T12:05:01.483Z,27.68
2023-03-11T12:07:27.851Z,27.62
2023-03-11T12:09:54.184Z,27.54
2023-03-11T12:12:20.572Z,27.56
2023-03-11T12:14:47.036Z,27.48
2023-03-11T12:17:13.410Z,27.38
2023-03-11T12:19:39.775Z,27.19
2023-03-11T12:22:06.137Z,27.08
2023-03-11T12:24:32.509Z,26.92
2023-03-11T12:26:58.876Z,26.92
2023-03-11T12:29:25.215Z,26.73
2023-03-11T12:31:51.629Z,26.64
2023-03-11T12:34:17.979Z,26.51
2023-03-11T12:36:44.367Z,26.41
2023-03-11T12:39:10.705Z,26.26
2023-03-11T12:41:37.088Z,26.25
2023-03-11T12:44:03.445Z,26.29
2023-03-11T12:46:29.890Z,26.19
2023-03-11T12:48:56.153Z,26.14
2023-03-11T12:51:22.545Z,26.03
2023-03-11T12:53:48.900Z,26.07
2023-03-11T12:56:15.280Z,26.12
2023-03-11T12:58:41.625Z,26.19
2023-03-11T13:01:08.019Z,26.20
2023-03-11T13:03:34.354Z,26.24
2023-03-11T13:06:00.749Z,26.25
2023-03-11T13:08:27.098Z,26.22
2023-03-11T13:10:53.537Z,26.25
2023-03-11T13:13:19.876Z,26.23
2023-03-11T13:15:46.254Z,26.22
2023-03-11T13:18:12.645Z,26.20
2023-03-11T13:20:38.999Z,26.29
2023-03-11T13:23:05.376Z,26.20
2023-03-11T13:25:31.728Z,26.22
2023-03-11T13:27:58.099Z,26.25
2023-03-11T13:30:24.444Z,26.18
2023-03-11T13:32:50.864Z,26.16
2023-03-11T13:35:17.184Z,26.09
2023-03-11T13:37:43.560Z,26.10
2023-03-11T13:40:09.916Z,26.10
2023-03-11T13:42:36.307Z,26.20
2023-03-11T13:45:02.652Z,26.12
2023-03-11T13:47:29.061Z,26.31
2023-03-11T13:49:55.403Z,26.46
2023-03-11T13:52:21.817Z,26.62
2023-03-11T13:54:48.180Z,26.71
2023-03-11T13:57:14.550Z,26.79
2023-03-11T13:59:40.887Z,26.99
2023-03-11T14:02:07.279Z,27.18
2023-03-11T14:04:33.641Z,27.37
2023-03-11T14:07:00.096Z,27.47
2023-03-11T14:09:26.357Z,27.57
2023-03-11T14:11:52.738Z,27.71
2023-03-11T14:14:19.096Z,27.89
2023-03-11T14:16:45.530Z,28.09
2023-03-11T14:19:11.823Z,28.28
2023-03-11T14:21:38.250Z,28.47
2023-03-11T14:24:04.584Z,28.53
2023-03-11T14:26:30.974Z,28.68
2023-03-11T14:28:57.315Z,28.76
2023-03-11T14:31:23.745Z,28.76
2023-03-11T14:33:50.058Z,28.76
2023-03-11T14:36:16.487Z,28.88
2023-03-11T14:38:42.792Z,28.96
2023-03-11T14:41:09.165Z,28.89
2023-03-11T14:43:35.510Z,28.91
2023-03-11T14:46:01.966Z,28.88
2023-03-11T14:48:28.247Z,28.93
2023-03-11T14:50:54.615Z,28.87
2023-03-11T14:53:20.971Z,29.05
2023-03-11T14:55:47.350Z,28.94
2023-03-11T14:58:13.697Z,28.84
2023-03-11T15:00:40.112Z,28.98
2023-03-11T15:03:06.474Z,29.04
2023-03-11T15:05:32.841Z,28.98
2023-03-11T15:07:59.189Z,28.93
2023-03-11T15:10:25.569Z,28.85
2023-03-11T15:12:51.920Z,28.89
2023-03-11T15:15:18.290Z,28.85
2023-03-11T15:17:44.663Z,28.85
2023-03-11T15:20:11.023Z,28.83
2023-03-11T15:22:37.729Z,28.84
2023-03-11T15:25:04.190Z,28.86
2023-03-11T15:27:30.534Z,28.86
2023-03-11T15:29:56.924Z,28.87
2023-03-11T15:32:23.329Z,28.93
2023-03-11T15:34:51.850Z,28.80
2023-03-11T15:37:18.198Z,28.82
2023-03-11T15:39:44.588Z,28.99
2023-03-11T15:42:10.939Z,28.96
2023-03-11T15:44:37.338Z,28.97
2023-03-11T15:47:03.689Z,28.94
2023-03-11T15:49:30.107Z,29.01
2023-03-11T15:51:56.443Z,28.98
2023-03-11T15:54:22.941Z,28.98
2023-03-11T15:56:49.210Z,29.08
2023-03-11T15:59:15.554Z,29.11
2023-03-11T16:01:41.905Z,29.18
2023-03-11T16:04:08.359Z,29.02
2023-03-11T16:06:34.657Z,29.13
2023-03-11T16:09:01.036Z,29.20
2023-03-11T16:11:27.376Z,29.33
2023-03-11T16:13:53.758Z,29.33
2023-03-11T16:16:20.172Z,29.40
2023-03-11T16:18:46.475Z,29.41
2023-03-11T16:21:12.824Z,29.46
2023-03-11T16:23:51.063Z,29.48
2023-03-11T16:26:05.589Z,29.54
2023-03-11T16:28:32.047Z,29.62
2023-03-11T16:30:58.414Z,29.59
2023-03-11T16:33:24.764Z,29.58
2023-03-11T16:35:51.225Z,29.88
2023-03-11T16:38:17.487Z,29.95
2023-03-11T16:40:43.838Z,29.95
2023-03-11T16:43:10.201Z,29.75
2023-03-11T16:45:36.547Z,29.77
2023-03-11T16:48:02.954Z,29.85
2023-03-11T16:50:29.291Z,29.92
2023-03-11T16:52:55.671Z,29.85
2023-03-11T16:55:22.014Z,29.81
2023-03-11T16:57:48.409Z,29.98
2023-03-11T17:00:14.824Z,29.96
2023-03-11T17:02:41.164Z,29.98
2023-03-11T17:05:07.529Z,30.05
2023-03-11T17:07:33.916Z,30.21
2023-03-11T17:10:00.410Z,30.14
2023-03-11T17:12:26.643Z,30.26
2023-03-11T17:14:52.992Z,30.30
2023-03-11T17:17:19.408Z,30.59
2023-03-11T17:19:45.756Z,30.31
2023-03-11T17:22:12.161Z,30.31
2023-03-11T17:24:38.492Z,30.33
2023-03-11T17:27:04.890Z,30.46
2023-03-11T17:29:31.226Z,30.37
2023-03-11T17:31:57.619Z,30.62
2023-03-11T17:34:23.965Z,30.42
2023-03-11T17:36:50.349Z,30.62
2023-03-11T17:39:16.698Z,30.70
2023-03-11T17:41:43.076Z,30.56
2023-03-11T17:44:09.418Z,30.57
2023-03-11T17:46:35.856Z,30.58
2023-03-11T17:49:02.175Z,30.58
2023-03-11T17:51:28.562Z,30.61
2023-03-11T17:53:54.899Z,30.66
2023-03-11T17:56:21.280Z,30.67
2023-03-11T17:58:47.624Z,30.69
2023-03-11T18:01:14.017Z,30.75
2023-03-11T18:03:40.400Z,30.75
2023-03-11T18:06:06.788Z,30.77
2023-03-11T18:08:33.151Z,30.79
2023-03-11T18:10:59.537Z,30.90
2023-03-11T18:13:25.897Z,31.08
2023-03-11T18:15:52.273Z,31.03
2023-03-11T18:18:18.609Z,31.03
2023-03-11T18:20:45.000Z,31.09
2023-03-11T18:23:11.351Z,31.08
2023-03-11T18:25:37.734Z,31.11
2023-03-11T18:28:04.116Z,31.16
2023-03-11T18:30:30.496Z,31.16
2023-03-11T18:32:56.891Z,31.18
2023-03-11T18:35:23.229Z,31.21
2023-03-11T18:37:49.565Z,31.20
2023-03-11T18:40:15.994Z,31.20
2023-03-11T18:42:43.351Z,31.17
2023-03-11T18:45:08.733Z,31.18
2023-03-11T18:47:35.089Z,31.21
2023-03-11T18:50:01.463Z,31.32
2023-03-11T18:52:27.818Z,31.37
2023-03-11T18:54:54.208Z,31.36
2023-03-11T18:57:20.543Z,31.44
2023-03-11T18:59:46.926Z,31.41
2023-03-11T19:02:13.269Z,31.40
2023-03-11T19:04:39.708Z,31.40
2023-03-11T19:07:06.017Z,31.42
2023-03-11T19:09:32.401Z,31.41
2023-03-11T19:11:58.842Z,31.48
2023-03-11T19:14:25.219Z,31.49
2023-03-11T19:16:51.624Z,31.44
2023-03-11T19:19:18.312Z,31.40
2023-03-11T19:21:44.653Z,31.44
2023-03-11T19:24:11.046Z,31.54
2023-03-11T19:26:44.882Z,31.49
2023-03-11T19:29:03.790Z,31.41
2023-03-11T19:31:30.133Z,31.43
2023-03-11T19:33:56.558Z,31.41
2023-03-11T19:36:22.902Z,31.38
2023-03-11T19:38:49.284Z,31.40
2023-03-11T19:41:15.659Z,31.50
2023-03-11T19:43:42.089Z,31.53
2023-03-11T19:46:08.411Z,31.57
2023-03-11T19:48:34.804Z,31.55
2023-03-11T19:51:02.433Z,31.61
2023-03-11T19:53:27.542Z,31.69
2023-03-11T19:55:53.856Z,31.71
2023-03-11T19:58:20.252Z,31.74
2023-03-11T20:00:46.628Z,31.77
2023-03-11T20:03:13.037Z,31.83
2023-03-11T20:05:39.331Z,31.88
2023-03-11T20:08:05.733Z,31.94
2023-03-11T20:10:32.070Z,31.92
2023-03-11T20:13:02.476Z,31.88
2023-03-11T20:15:24.795Z,31.90
2023-03-11T20:17:52.433Z,31.92
2023-03-11T20:20:17.545Z,31.94
2023-03-11T20:22:43.932Z,31.95
2023-03-11T20:25:10.352Z,31.95
2023-03-11T20:27:36.697Z,31.98
2023-03-11T20:30:03.070Z,31.98
2023-03-11T20:32:29.499Z,32.01
2023-03-11T20:34:55.847Z,31.99
2023-03-11T20:37:22.192Z,31.99
2023-03-11T20:39:48.533Z,32.03
2023-03-11T20:42:14.995Z,32.01
2023-03-11T20:44:41.254Z,32.05
2023-03-11T20:47:07.715Z,32.03
2023-03-11T20:49:34.053Z,32.05
2023-03-11T20:52:00.443Z,32.05
2023-03-11T20:54:26.787Z,32.06
2023-03-11T20:56:54.378Z,32.14
2023-03-11T20:59:19.484Z,32.12
2023-03-11T21:01:45.924Z,32.14
2023-03-11T21:04:12.674Z,32.12
2023-03-11T21:06:38.681Z,32.13
2023-03-11T21:09:05.084Z,32.18
2023-03-11T21:11:31.507Z,32.16
2023-03-11T21:13:57.813Z,32.17
2023-03-11T21:16:24.176Z,32.14
2023-03-11T21:18:50.520Z,32.22
2023-03-11T21:21:16.912Z,32.24
2023-03-11T21:23:43.167Z,32.23
2023-03-11T21:26:09.576Z,32.23
2023-03-11T21:28:35.899Z,32.21
2023-03-11T21:31:02.566Z,32.26
2023-03-11T21:33:30.355Z,32.33
2023-03-11T21:35:56.752Z,32.28
2023-03-11T21:38:23.085Z,32.34
2023-03-11T21:40:49.579Z,32.28
2023-03-11T21:43:16.004Z,32.36
2023-03-11T21:45:42.290Z,32.32
2023-03-11T21:48:09.816Z,32.32
2023-03-11T21:50:34.965Z,32.32
2023-03-11T21:53:01.339Z,32.33
2023-03-11T21:55:27.754Z,32.39
2023-03-11T21:57:54.201Z,32.42
2023-03-11T22:00:20.492Z,32.40
2023-03-11T22:02:46.778Z,32.41
2023-03-11T22:05:13.368Z,32.44
2023-03-11T22:07:39.738Z,32.41
2023-03-11T22:10:06.037Z,32.44
2023-03-11T22:12:32.354Z,32.45
2023-03-11T22:14:58.768Z,32.43
2023-03-11T22:17:25.255Z,32.43
2023-03-11T22:19:51.515Z,32.46
2023-03-11T22:22:17.825Z,32.49
2023-03-11T22:24:44.147Z,32.49
2023-03-11T22:27:10.496Z,32.58
2023-03-11T22:29:36.880Z,32.57
2023-03-11T22:32:03.314Z,32.53
2023-03-11T22:34:29.615Z,32.55
2023-03-11T22:36:55.998Z,32.55
2023-03-11T22:39:22.346Z,32.57
2023-03-11T22:41:48.714Z,32.56
2023-03-11T22:44:15.107Z,32.62
2023-03-11T22:46:41.448Z,32.64
2023-03-11T22:49:07.837Z,32.63
2023-03-11T22:51:34.180Z,32.65
2023-03-11T22:54:00.621Z,32.65
2023-03-11T22:56:26.951Z,32.65
2023-03-11T22:58:53.338Z,32.65
2023-03-11T23:01:19.681Z,32.70
2023-03-11T23:03:46.081Z,32.68
2023-03-11T23:06:12.544Z,32.68
2023-03-11T23:08:38.898Z,32.70
2023-03-11T23:11:05.235Z,32.73
2023-03-11T23:13:33.022Z,32.71
2023-03-11T23:15:57.961Z,32.72
2023-03-11T23:18:24.349Z,32.72
2023-03-11T23:20:50.693Z,32.76
2023-03-11T23:23:17.080Z,32.76
2023-03-11T23:25:43.438Z,32.74
2023-03-11T23:28:09.811Z,32.73
2023-03-11T23:30:36.217Z,32.78
2023-03-11T23:33:02.549Z,32.74
2023-03-11T23:35:28.897Z,32.75
2023-03-11T23:37:55.309Z,32.79
2023-03-11T23:40:21.648Z,32.78
2023-03-11T23:42:48.005Z,32.83
2023-03-11T23:45:14.379Z,32.81
2023-03-11T23:47:40.720Z,32.83
2023-03-11T23:50:07.125Z,32.81
2023-03-11T23:52:33.460Z,32.81
2023-03-11T23:54:59.894Z,32.78
2023-03-11T23:57:26.253Z,32.82
2023-03-11T23:59:52.632Z,32.79
